sensor_id;sensor_type;location;lat;lon;timestamp;temperature;humidity
44763;DHT22;30483;49.576;6.036;2023-12-14T04:01:20;14.40;99.90
44763;DHT22;30483;49.576;6.036;2023-12-14T04:03:47;14.40;99.90
44763;DHT22;30483;49.576;6.036;2023-12-14T04:06:13;14.40;99.90
44763;DHT22;30483;49.576;6.036;2023-12-14T04:08:40;14.30;99.90
44763;DHT22;30483;49.576;6.036;2023-12-14T04:11:06;14.30;99.90
44763;DHT22;30483;49.576;6.036;2023-12-14T04:13:31;14.30;99.90
44763;DHT22;30483;49.576;6.036;2023-12-14T04:15:57;14.30;99.90
44763;DHT22;30483;49.576;6.036;2023-12-14T04:18:23;14.10;99.90
44763;DHT22;30483;49.576;6.036;2023-12-14T04:20:49;14.10;99.90
44763;DHT22;30483;49.576;6.036;2023-12-14T04:23:14;14.10;99.90
44763;DHT22;30483;49.576;6.036;2023-12-14T04:25:40;14.10;99.90
44763;DHT22;30483;49.576;6.036;2023-12-14T04:28:05;14.20;99.90
44763;DHT22;30483;49.576;6.036;2023-12-14T04:30:31;14.10;99.90
44763;DHT22;30483;49.576;6.036;2023-12-14T04:32:56;14.20;99.90
44763;DHT22;30483;49.576;6.036;2023-12-14T04:35:22;14.10;99.90
44763;DHT22;30483;49.576;6.036;2023-12-14T04:37:48;14.10;99.90
44763;DHT22;30483;49.576;6.036;2023-12-14T04:40:14;14.10;99.90
44763;DHT22;30483;49.576;6.036;2023-12-14T04:42:39;14.20;99.90
44763;DHT22;30483;49.576;6.036;2023-12-14T04:45:05;14.10;99.90
44763;DHT22;30483;49.576;6.036;2023-12-14T04:47:31;14.10;99.90
44763;DHT22;30483;49.576;6.036;2023-12-14T04:49:57;14.20;99.90
44763;DHT22;30483;49.576;6.036;2023-12-14T04:52:22;14.20;99.90
44763;DHT22;30483;49.576;6.036;2023-12-14T04:54:48;14.20;99.90
44763;DHT22;30483;49.576;6.036;2023-12-14T04:57:13;14.20;99.90
44763;DHT22;30483;49.576;6.036;2023-12-14T04:59:41;14.20;99.90
44763;DHT22;30483;49.576;6.036;2023-12-14T05:02:07;14.20;99.90
44763;DHT22;30483;49.576;6.036;2023-12-14T05:04:33;14.30;99.90
44763;DHT22;30483;49.576;6.036;2023-12-14T05:06:58;14.30;99.90
44763;DHT22;30483;49.576;6.036;2023-12-14T05:09:24;14.30;99.90
44763;DHT22;30483;49.576;6.036;2023-12-14T05:11:49;14.30;99.90
44763;DHT22;30483;49.576;6.036;2023-12-14T05:14:15;14.20;99.90
44763;DHT22;30483;49.576;6.036;2023-12-14T05:16:40;14.20;99.90
44763;DHT22;30483;49.576;6.036;2023-12-14T05:19:06;14.10;99.90
44763;DHT22;30483;49.576;6.036;2023-12-14T05:21:32;14.10;99.90
44763;DHT22;30483;49.576;6.036;2023-12-14T05:23:57;14.10;99.90
44763;DHT22;30483;49.576;6.036;2023-12-14T05:26:23;14.10;99.90
44763;DHT22;30483;49.576;6.036;2023-12-14T05:28:48;14.10;99.90
44763;DHT22;30483;49.576;6.036;2023-12-14T05:31:14;14.10;99.90
44763;DHT22;30483;49.576;6.036;2023-12-14T05:33:40;14.10;99.90
44763;DHT22;30483;49.576;6.036;2023-12-14T05:36:06;14.00;99.90
44763;DHT22;30483;49.576;6.036;2023-12-14T05:38:39;14.00;99.90
44763;DHT22;30483;49.576;6.036;2023-12-14T05:41:05;14.00;99.90
44763;DHT22;30483;49.576;6.036;2023-12-14T05:43:31;14.00;99.90
44763;DHT22;30483;49.576;6.036;2023-12-14T05:46:29;13.90;99.90
44763;DHT22;30483;49.576;6.036;2023-12-14T05:48:55;14.00;99.90
44763;DHT22;30483;49.576;6.036;2023-12-14T05:51:31;14.10;99.90
44763;DHT22;30483;49.576;6.036;2023-12-14T05:53:57;14.10;99.90
44763;DHT22;30483;49.576;6.036;2023-12-14T05:56:24;14.20;99.90
44763;DHT22;30483;49.576;6.036;2023-12-14T05:58:50;14.20;99.90
44763;DHT22;30483;49.576;6.036;2023-12-14T06:01:18;14.20;99.90
44763;DHT22;30483;49.576;6.036;2023-12-14T06:03:45;14.30;99.90
44763;DHT22;30483;49.576;6.036;2023-12-14T06:06:11;14.30;99.90
44763;DHT22;30483;49.576;6.036;2023-12-14T06:08:38;14.30;99.90
44763;DHT22;30483;49.576;6.036;2023-12-14T06:11:04;14.30;99.90
44763;DHT22;30483;49.576;6.036;2023-12-14T06:13:32;14.40;99.90
44763;DHT22;30483;49.576;6.036;2023-12-14T06:15:57;14.40;99.90
44763;DHT22;30483;49.576;6.036;2023-12-14T06:18:23;14.40;99.90
44763;DHT22;30483;49.576;6.036;2023-12-14T06:20:48;14.40;99.90
44763;DHT22;30483;49.576;6.036;2023-12-14T06:23:14;14.40;99.90
44763;DHT22;30483;49.576;6.036;2023-12-14T06:25:40;14.40;99.90
44763;DHT22;30483;49.576;6.036;2023-12-14T06:28:05;14.50;99.90
44763;DHT22;30483;49.576;6.036;2023-12-14T06:30:31;14.60;99.90
44763;DHT22;30483;49.576;6.036;2023-12-14T06:32:56;14.60;99.90
44763;DHT22;30483;49.576;6.036;2023-12-14T06:35:22;14.50;99.90
44763;DHT22;30483;49.576;6.036;2023-12-14T06:37:48;14.50;99.90
44763;DHT22;30483;49.576;6.036;2023-12-14T06:40:13;14.40;99.90
44763;DHT22;30483;49.576;6.036;2023-12-14T06:42:39;14.30;99.90
44763;DHT22;30483;49.576;6.036;2023-12-14T06:45:05;14.30;99.90
44763;DHT22;30483;49.576;6.036;2023-12-14T06:47:31;14.20;99.90
44763;DHT22;30483;49.576;6.036;2023-12-14T06:49:56;14.20;99.90
44763;DHT22;30483;49.576;6.036;2023-12-14T06:52:23;14.10;99.90
44763;DHT22;30483;49.576;6.036;2023-12-14T06:54:48;14.10;99.90
44763;DHT22;30483;49.576;6.036;2023-12-14T06:57:14;14.10;99.90
44763;DHT22;30483;49.576;6.036;2023-12-14T06:59:40;14.10;99.90
44763;DHT22;30483;49.576;6.036;2023-12-14T07:02:06;13.90;99.90
44763;DHT22;30483;49.576;6.036;2023-12-14T07:04:32;14.30;99.90
44763;DHT22;30483;49.576;6.036;2023-12-14T07:06:57;14.50;99.90
44763;DHT22;30483;49.576;6.036;2023-12-14T07:09:24;14.60;99.90
44763;DHT22;30483;49.576;6.036;2023-12-14T07:11:49;14.40;99.90
44763;DHT22;30483;49.576;6.036;2023-12-14T07:14:15;14.40;99.90
44763;DHT22;30483;49.576;6.036;2023-12-14T07:16:41;14.30;99.90
44763;DHT22;30483;49.576;6.036;2023-12-14T07:19:07;14.30;99.90
44763;DHT22;30483;49.576;6.036;2023-12-14T07:21:32;14.20;99.90
44763;DHT22;30483;49.576;6.036;2023-12-14T07:23:58;14.20;99.90
44763;DHT22;30483;49.576;6.036;2023-12-14T07:26:24;14.20;99.90
44763;DHT22;30483;49.576;6.036;2023-12-14T07:28:51;14.10;99.90
44763;DHT22;30483;49.576;6.036;2023-12-14T07:31:17;14.10;99.90
44763;DHT22;30483;49.576;6.036;2023-12-14T07:33:42;14.10;99.90
44763;DHT22;30483;49.576;6.036;2023-12-14T07:36:08;14.20;99.90
44763;DHT22;30483;49.576;6.036;2023-12-14T07:38:34;14.20;99.90
44763;DHT22;30483;49.576;6.036;2023-12-14T07:40:59;14.20;99.90
44763;DHT22;30483;49.576;6.036;2023-12-14T07:43:25;14.20;99.90
44763;DHT22;30483;49.576;6.036;2023-12-14T07:45:51;14.20;99.90
44763;DHT22;30483;49.576;6.036;2023-12-14T07:48:16;14.20;99.90
44763;DHT22;30483;49.576;6.036;2023-12-14T07:50:42;14.10;99.90
44763;DHT22;30483;49.576;6.036;2023-12-14T07:53:07;14.20;99.90
44763;DHT22;30483;49.576;6.036;2023-12-14T07:55:33;14.20;99.90
44763;DHT22;30483;49.576;6.036;2023-12-14T07:57:59;14.20;99.90
44763;DHT22;30483;49.576;6.036;2023-12-14T08:00:24;14.20;99.90
44763;DHT22;30483;49.576;6.036;2023-12-14T08:02:50;14.20;99.90
44763;DHT22;30483;49.576;6.036;2023-12-14T08:05:15;14.20;99.90
44763;DHT22;30483;49.576;6.036;2023-12-14T08:07:41;14.20;99.90
44763;DHT22;30483;49.576;6.036;2023-12-14T08:10:07;14.30;99.90
44763;DHT22;30483;49.576;6.036;2023-12-14T08:12:33;14.20;99.90
44763;DHT22;30483;49.576;6.036;2023-12-14T08:14:58;14.30;99.90
44763;DHT22;30483;49.576;6.036;2023-12-14T08:17:24;14.30;99.90
44763;DHT22;30483;49.576;6.036;2023-12-14T08:19:50;14.30;99.90
44763;DHT22;30483;49.576;6.036;2023-12-14T08:22:16;14.30;99.90
44763;DHT22;30483;49.576;6.036;2023-12-14T08:24:42;14.40;99.90
44763;DHT22;30483;49.576;6.036;2023-12-14T08:27:08;14.40;99.90
44763;DHT22;30483;49.576;6.036;2023-12-14T08:29:33;14.40;99.90
44763;DHT22;30483;49.576;6.036;2023-12-14T08:31:59;14.40;99.90
44763;DHT22;30483;49.576;6.036;2023-12-14T08:34:27;14.40;99.90
44763;DHT22;30483;49.576;6.036;2023-12-14T08:36:53;14.40;99.90
44763;DHT22;30483;49.576;6.036;2023-12-14T08:39:19;14.40;99.90
44763;DHT22;30483;49.576;6.036;2023-12-14T08:41:48;14.40;99.90
44763;DHT22;30483;49.576;6.036;2023-12-14T08:44:15;14.40;99.90
44763;DHT22;30483;49.576;6.036;2023-12-14T08:46:45;14.30;99.90
44763;DHT22;30483;49.576;6.036;2023-12-14T08:49:12;14.30;99.90
44763;DHT22;30483;49.576;6.036;2023-12-14T08:51:38;14.30;99.90
44763;DHT22;30483;49.576;6.036;2023-12-14T08:54:04;14.20;99.90
44763;DHT22;30483;49.576;6.036;2023-12-14T08:56:30;14.10;99.90
44763;DHT22;30483;49.576;6.036;2023-12-14T08:58:56;14.10;99.90
44763;DHT22;30483;49.576;6.036;2023-12-14T09:01:23;14.00;99.90
44763;DHT22;30483;49.576;6.036;2023-12-14T09:03:49;13.90;99.90
44763;DHT22;30483;49.576;6.036;2023-12-14T09:06:16;13.90;99.90
44763;DHT22;30483;49.576;6.036;2023-12-14T09:08:43;13.90;99.90
44763;DHT22;30483;49.576;6.036;2023-12-14T09:11:09;13.90;99.90
44763;DHT22;30483;49.576;6.036;2023-12-14T09:13:34;13.80;99.90
44763;DHT22;30483;49.576;6.036;2023-12-14T09:16:00;13.80;99.90
44763;DHT22;30483;49.576;6.036;2023-12-14T09:18:26;13.80;99.90
44763;DHT22;30483;49.576;6.036;2023-12-14T09:20:51;13.90;99.90
44763;DHT22;30483;49.576;6.036;2023-12-14T09:23:17;13.90;99.90
44763;DHT22;30483;49.576;6.036;2023-12-14T09:25:47;13.90;99.90
44763;DHT22;30483;49.576;6.036;2023-12-14T09:28:13;13.90;99.90
44763;DHT22;30483;49.576;6.036;2023-12-14T09:30:38;14.00;99.90
44763;DHT22;30483;49.576;6.036;2023-12-14T09:33:04;14.10;99.90
44763;DHT22;30483;49.576;6.036;2023-12-14T09:35:30;14.10;99.90
44763;DHT22;30483;49.576;6.036;2023-12-14T09:37:55;14.20;99.90
44763;DHT22;30483;49.576;6.036;2023-12-14T09:40:22;14.20;99.90
44763;DHT22;30483;49.576;6.036;2023-12-14T09:42:48;14.20;99.90
44763;DHT22;30483;49.576;6.036;2023-12-14T09:45:16;14.30;99.90
44763;DHT22;30483;49.576;6.036;2023-12-14T09:47:43;14.30;99.90
44763;DHT22;30483;49.576;6.036;2023-12-14T09:50:09;14.30;99.90
44763;DHT22;30483;49.576;6.036;2023-12-14T09:52:35;14.30;99.90
44763;DHT22;30483;49.576;6.036;2023-12-14T09:55:01;14.20;99.90
44763;DHT22;30483;49.576;6.036;2023-12-14T09:57:29;14.20;99.90
44763;DHT22;30483;49.576;6.036;2023-12-14T09:59:55;14.20;99.90
44763;DHT22;30483;49.576;6.036;2023-12-14T10:02:25;14.30;99.90
44763;DHT22;30483;49.576;6.036;2023-12-14T10:04:52;14.20;99.90
44763;DHT22;30483;49.576;6.036;2023-12-14T10:07:18;14.30;99.90
44763;DHT22;30483;49.576;6.036;2023-12-14T10:09:44;14.20;99.90
44763;DHT22;30483;49.576;6.036;2023-12-14T10:12:10;14.30;99.90
44763;DHT22;30483;49.576;6.036;2023-12-14T10:14:36;14.30;99.90
44763;DHT22;30483;49.576;6.036;2023-12-14T10:17:19;14.30;99.90
44763;DHT22;30483;49.576;6.036;2023-12-14T10:19:46;14.30;99.90
44763;DHT22;30483;49.576;6.036;2023-12-14T10:22:18;14.30;99.90
44763;DHT22;30483;49.576;6.036;2023-12-14T10:24:46;14.30;99.90
44763;DHT22;30483;49.576;6.036;2023-12-14T10:27:12;14.20;99.90
44763;DHT22;30483;49.576;6.036;2023-12-14T10:29:39;14.10;99.90
44763;DHT22;30483;49.576;6.036;2023-12-14T10:32:05;14.20;99.90
44763;DHT22;30483;49.576;6.036;2023-12-14T10:34:32;14.20;99.90
44763;DHT22;30483;49.576;6.036;2023-12-14T10:36:59;14.10;99.90
44763;DHT22;30483;49.576;6.036;2023-12-14T10:39:25;13.90;99.90
44763;DHT22;30483;49.576;6.036;2023-12-14T10:41:52;14.00;99.90
44763;DHT22;30483;49.576;6.036;2023-12-14T10:44:21;14.10;99.90
44763;DHT22;30483;49.576;6.036;2023-12-14T10:46:50;14.10;99.90
44763;DHT22;30483;49.576;6.036;2023-12-14T10:49:18;14.10;99.90
44763;DHT22;30483;49.576;6.036;2023-12-14T10:51:44;14.20;99.90
44763;DHT22;30483;49.576;6.036;2023-12-14T10:54:10;14.20;99.90
44763;DHT22;30483;49.576;6.036;2023-12-14T10:56:36;14.20;99.90
44763;DHT22;30483;49.576;6.036;2023-12-14T10:59:01;14.10;99.90
44763;DHT22;30483;49.576;6.036;2023-12-14T11:01:28;14.40;99.90
44763;DHT22;30483;49.576;6.036;2023-12-14T11:03:59;14.60;99.90
44763;DHT22;30483;49.576;6.036;2023-12-14T11:06:28;14.40;99.90
44763;DHT22;30483;49.576;6.036;2023-12-14T11:09:07;14.30;99.90
44763;DHT22;30483;49.576;6.036;2023-12-14T11:14:19;14.00;99.90
44763;DHT22;30483;49.576;6.036;2023-12-14T11:16:47;13.80;99.90
44763;DHT22;30483;49.576;6.036;2023-12-14T11:24:22;13.60;99.90
44763;DHT22;30483;49.576;6.036;2023-12-14T11:26:51;13.70;99.90
44763;DHT22;30483;49.576;6.036;2023-12-14T11:29:18;13.60;99.90
44763;DHT22;30483;49.576;6.036;2023-12-14T11:31:45;13.70;99.90
44763;DHT22;30483;49.576;6.036;2023-12-14T11:34:11;13.50;99.90
44763;DHT22;30483;49.576;6.036;2023-12-14T11:36:37;13.40;99.90
44763;DHT22;30483;49.576;6.036;2023-12-14T11:39:07;13.40;99.90
44763;DHT22;30483;49.576;6.036;2023-12-14T11:41:33;13.50;99.90
44763;DHT22;30483;49.576;6.036;2023-12-14T11:43:59;13.50;99.90
44763;DHT22;30483;49.576;6.036;2023-12-14T11:46:25;13.60;99.90
44763;DHT22;30483;49.576;6.036;2023-12-14T11:48:51;13.60;99.90
44763;DHT22;30483;49.576;6.036;2023-12-14T11:51:17;13.60;99.90
44763;DHT22;30483;49.576;6.036;2023-12-14T11:53:46;13.50;99.90
44763;DHT22;30483;49.576;6.036;2023-12-14T11:56:14;13.50;99.90
44763;DHT22;30483;49.576;6.036;2023-12-14T11:58:43;13.40;99.90
44763;DHT22;30483;49.576;6.036;2023-12-14T12:01:20;13.40;99.90
44763;DHT22;30483;49.576;6.036;2023-12-14T12:03:51;13.40;99.90
44763;DHT22;30483;49.576;6.036;2023-12-14T12:06:24;13.50;99.90
44763;DHT22;30483;49.576;6.036;2023-12-14T12:08:50;13.60;99.90
44763;DHT22;30483;49.576;6.036;2023-12-14T12:11:20;13.50;99.90
44763;DHT22;30483;49.576;6.036;2023-12-14T12:13:54;13.50;99.90
44763;DHT22;30483;49.576;6.036;2023-12-14T12:16:20;13.50;99.90
44763;DHT22;30483;49.576;6.036;2023-12-14T12:18:46;13.60;99.90
44763;DHT22;30483;49.576;6.036;2023-12-14T12:21:12;13.70;99.90
44763;DHT22;30483;49.576;6.036;2023-12-14T12:23:38;13.60;99.90
44763;DHT22;30483;49.576;6.036;2023-12-14T12:26:04;13.60;99.90
44763;DHT22;30483;49.576;6.036;2023-12-14T12:28:30;13.70;99.90
44763;DHT22;30483;49.576;6.036;2023-12-14T12:30:56;13.60;99.90
44763;DHT22;30483;49.576;6.036;2023-12-14T12:33:22;13.60;99.90
44763;DHT22;30483;49.576;6.036;2023-12-14T12:35:47;13.60;99.90
44763;DHT22;30483;49.576;6.036;2023-12-14T12:38:13;13.50;99.90
44763;DHT22;30483;49.576;6.036;2023-12-14T12:40:39;13.50;99.90
44763;DHT22;30483;49.576;6.036;2023-12-14T12:43:05;13.60;99.90
44763;DHT22;30483;49.576;6.036;2023-12-14T12:45:31;13.50;99.90
44763;DHT22;30483;49.576;6.036;2023-12-14T12:47:57;13.50;99.90
44763;DHT22;30483;49.576;6.036;2023-12-14T12:50:23;13.50;99.90
44763;DHT22;30483;49.576;6.036;2023-12-14T12:52:48;13.40;99.90
44763;DHT22;30483;49.576;6.036;2023-12-14T12:55:15;13.40;99.90
44763;DHT22;30483;49.576;6.036;2023-12-14T12:57:41;13.40;99.90
44763;DHT22;30483;49.576;6.036;2023-12-14T13:00:10;13.40;99.90
44763;DHT22;30483;49.576;6.036;2023-12-14T13:02:43;13.40;99.90
44763;DHT22;30483;49.576;6.036;2023-12-14T13:05:09;13.50;99.90
44763;DHT22;30483;49.576;6.036;2023-12-14T13:07:35;13.50;99.90
44763;DHT22;30483;49.576;6.036;2023-12-14T13:10:05;13.60;99.90
44763;DHT22;30483;49.576;6.036;2023-12-14T13:12:34;13.60;99.90
44763;DHT22;30483;49.576;6.036;2023-12-14T13:15:00;13.50;99.90
44763;DHT22;30483;49.576;6.036;2023-12-14T13:17:25;13.60;99.90
44763;DHT22;30483;49.576;6.036;2023-12-14T13:19:52;13.70;99.90
44763;DHT22;30483;49.576;6.036;2023-12-14T13:22:18;13.70;99.90
44763;DHT22;30483;49.576;6.036;2023-12-14T13:24:45;13.70;99.90
44763;DHT22;30483;49.576;6.036;2023-12-14T13:27:11;13.70;99.90
44763;DHT22;30483;49.576;6.036;2023-12-14T13:29:37;13.70;99.90
44763;DHT22;30483;49.576;6.036;2023-12-14T13:32:02;13.80;99.90
44763;DHT22;30483;49.576;6.036;2023-12-14T13:34:28;13.70;99.90
44763;DHT22;30483;49.576;6.036;2023-12-14T13:36:55;13.60;99.90
44763;DHT22;30483;49.576;6.036;2023-12-14T13:39:20;13.50;99.90
44763;DHT22;30483;49.576;6.036;2023-12-14T13:41:47;13.50;99.90
44763;DHT22;30483;49.576;6.036;2023-12-14T13:44:12;13.40;99.90
44763;DHT22;30483;49.576;6.036;2023-12-14T13:46:38;13.30;99.90
44763;DHT22;30483;49.576;6.036;2023-12-14T13:49:04;13.40;99.90
44763;DHT22;30483;49.576;6.036;2023-12-14T13:51:29;13.40;99.90
44763;DHT22;30483;49.576;6.036;2023-12-14T13:53:55;13.50;99.90
44763;DHT22;30483;49.576;6.036;2023-12-14T13:56:20;13.50;99.90
44763;DHT22;30483;49.576;6.036;2023-12-14T13:58:46;13.60;99.90
44763;DHT22;30483;49.576;6.036;2023-12-14T14:01:12;13.50;99.90
44763;DHT22;30483;49.576;6.036;2023-12-14T14:03:38;13.60;99.90
44763;DHT22;30483;49.576;6.036;2023-12-14T14:06:04;13.60;99.90
44763;DHT22;30483;49.576;6.036;2023-12-14T14:08:30;13.50;99.90
44763;DHT22;30483;49.576;6.036;2023-12-14T14:11:00;13.50;99.90
44763;DHT22;30483;49.576;6.036;2023-12-14T14:13:26;13.60;99.90
44763;DHT22;30483;49.576;6.036;2023-12-14T14:15:52;13.50;99.90
44763;DHT22;30483;49.576;6.036;2023-12-14T14:18:18;13.50;99.90
44763;DHT22;30483;49.576;6.036;2023-12-14T14:20:44;13.50;99.90
44763;DHT22;30483;49.576;6.036;2023-12-14T14:23:09;13.60;99.90
44763;DHT22;30483;49.576;6.036;2023-12-14T14:25:35;13.60;99.90
44763;DHT22;30483;49.576;6.036;2023-12-14T14:28:01;13.70;99.90
44763;DHT22;30483;49.576;6.036;2023-12-14T14:30:26;13.60;99.90
44763;DHT22;30483;49.576;6.036;2023-12-14T14:32:52;13.60;99.90
44763;DHT22;30483;49.576;6.036;2023-12-14T14:35:18;13.70;99.90
44763;DHT22;30483;49.576;6.036;2023-12-14T14:37:44;13.70;99.90
44763;DHT22;30483;49.576;6.036;2023-12-14T14:40:13;13.70;99.90
44763;DHT22;30483;49.576;6.036;2023-12-14T14:42:39;13.70;99.90
44763;DHT22;30483;49.576;6.036;2023-12-14T14:45:09;13.70;99.90
44763;DHT22;30483;49.576;6.036;2023-12-14T14:47:35;13.80;99.90
44763;DHT22;30483;49.576;6.036;2023-12-14T14:50:01;13.80;99.90
44763;DHT22;30483;49.576;6.036;2023-12-14T14:52:30;13.70;99.90
44763;DHT22;30483;49.576;6.036;2023-12-14T14:54:56;13.70;99.90
44763;DHT22;30483;49.576;6.036;2023-12-14T14:57:21;13.80;99.90
44763;DHT22;30483;49.576;6.036;2023-12-14T14:59:47;13.70;99.90
44763;DHT22;30483;49.576;6.036;2023-12-14T15:02:13;13.70;99.90
44763;DHT22;30483;49.576;6.036;2023-12-14T15:04:38;13.60;99.90
44763;DHT22;30483;49.576;6.036;2023-12-14T15:07:04;13.50;99.90
44763;DHT22;30483;49.576;6.036;2023-12-14T15:09:29;13.70;99.90
44763;DHT22;30483;49.576;6.036;2023-12-14T15:11:55;13.80;99.90
44763;DHT22;30483;49.576;6.036;2023-12-14T15:14:21;13.80;99.90
44763;DHT22;30483;49.576;6.036;2023-12-14T15:16:46;13.80;99.90
44763;DHT22;30483;49.576;6.036;2023-12-14T15:19:12;13.80;99.90
44763;DHT22;30483;49.576;6.036;2023-12-14T15:21:39;13.70;99.90
44763;DHT22;30483;49.576;6.036;2023-12-14T15:24:05;13.70;99.90
44763;DHT22;30483;49.576;6.036;2023-12-14T15:26:30;13.80;99.90
44763;DHT22;30483;49.576;6.036;2023-12-14T15:28:58;13.80;99.90
44763;DHT22;30483;49.576;6.036;2023-12-14T15:31:24;13.90;99.90
44763;DHT22;30483;49.576;6.036;2023-12-14T15:33:50;13.90;99.90
44763;DHT22;30483;49.576;6.036;2023-12-14T15:36:16;14.00;99.90
44763;DHT22;30483;49.576;6.036;2023-12-14T15:38:41;14.00;99.90
44763;DHT22;30483;49.576;6.036;2023-12-14T15:41:14;14.00;99.90
44763;DHT22;30483;49.576;6.036;2023-12-14T15:43:41;14.00;99.90
44763;DHT22;30483;49.576;6.036;2023-12-14T15:46:07;13.90;99.90
44763;DHT22;30483;49.576;6.036;2023-12-14T15:48:33;14.00;99.90
44763;DHT22;30483;49.576;6.036;2023-12-14T15:50:58;14.00;99.90
44763;DHT22;30483;49.576;6.036;2023-12-14T15:53:24;14.00;99.90
44763;DHT22;30483;49.576;6.036;2023-12-14T15:55:50;13.90;99.90
44763;DHT22;30483;49.576;6.036;2023-12-14T15:58:15;13.90;99.90
44763;DHT22;30483;49.576;6.036;2023-12-14T16:00:41;13.90;99.90
44763;DHT22;30483;49.576;6.036;2023-12-14T16:03:06;14.00;99.90
44763;DHT22;30483;49.576;6.036;2023-12-14T16:05:35;14.00;99.90
44763;DHT22;30483;49.576;6.036;2023-12-14T16:08:00;14.00;99.90
44763;DHT22;30483;49.576;6.036;2023-12-14T16:10:27;14.10;99.90
44763;DHT22;30483;49.576;6.036;2023-12-14T16:13:01;14.10;99.90
44763;DHT22;30483;49.576;6.036;2023-12-14T16:15:26;14.10;99.90
44763;DHT22;30483;49.576;6.036;2023-12-14T16:17:52;14.10;99.90
44763;DHT22;30483;49.576;6.036;2023-12-14T16:20:17;14.10;99.90
44763;DHT22;30483;49.576;6.036;2023-12-14T16:22:44;14.10;99.90
44763;DHT22;30483;49.576;6.036;2023-12-14T16:25:12;14.10;99.90
44763;DHT22;30483;49.576;6.036;2023-12-14T16:27:37;14.10;99.90
44763;DHT22;30483;49.576;6.036;2023-12-14T16:30:03;14.10;99.90
44763;DHT22;30483;49.576;6.036;2023-12-14T16:32:29;14.20;99.90
44763;DHT22;30483;49.576;6.036;2023-12-14T16:34:55;14.20;99.90
44763;DHT22;30483;49.576;6.036;2023-12-14T16:37:21;14.20;99.90
44763;DHT22;30483;49.576;6.036;2023-12-14T16:39:46;14.20;99.90
44763;DHT22;30483;49.576;6.036;2023-12-14T16:42:12;14.20;99.90
44763;DHT22;30483;49.576;6.036;2023-12-14T16:44:38;14.20;99.90
44763;DHT22;30483;49.576;6.036;2023-12-14T16:47:12;14.20;99.90
44763;DHT22;30483;49.576;6.036;2023-12-14T16:49:39;14.20;99.90
44763;DHT22;30483;49.576;6.036;2023-12-14T16:52:08;14.20;99.90
44763;DHT22;30483;49.576;6.036;2023-12-14T16:54:35;14.20;99.90
44763;DHT22;30483;49.576;6.036;2023-12-14T16:57:01;14.20;99.90
44763;DHT22;30483;49.576;6.036;2023-12-14T16:59:28;14.20;99.90
44763;DHT22;30483;49.576;6.036;2023-12-14T17:01:54;14.20;99.90
44763;DHT22;30483;49.576;6.036;2023-12-14T17:04:19;14.20;99.90
44763;DHT22;30483;49.576;6.036;2023-12-14T17:06:46;14.20;99.90
44763;DHT22;30483;49.576;6.036;2023-12-14T17:09:12;14.20;99.90
44763;DHT22;30483;49.576;6.036;2023-12-14T17:11:37;14.20;99.90
44763;DHT22;30483;49.576;6.036;2023-12-14T17:14:03;14.20;99.90
44763;DHT22;30483;49.576;6.036;2023-12-14T17:16:28;14.10;99.90
44763;DHT22;30483;49.576;6.036;2023-12-14T17:18:54;14.20;99.90
44763;DHT22;30483;49.576;6.036;2023-12-14T17:21:22;14.10;99.90
44763;DHT22;30483;49.576;6.036;2023-12-14T17:23:49;14.20;99.90
44763;DHT22;30483;49.576;6.036;2023-12-14T17:26:15;14.10;99.90
44763;DHT22;30483;49.576;6.036;2023-12-14T17:31:10;13.90;99.90
44763;DHT22;30483;49.576;6.036;2023-12-14T17:33:36;13.90;99.90
44763;DHT22;30483;49.576;6.036;2023-12-14T17:36:02;13.90;99.90
44763;DHT22;30483;49.576;6.036;2023-12-14T17:38:27;14.00;99.90
44763;DHT22;30483;49.576;6.036;2023-12-14T17:40:53;14.10;99.90
44763;DHT22;30483;49.576;6.036;2023-12-14T17:43:18;14.10;99.90
44763;DHT22;30483;49.576;6.036;2023-12-14T17:45:44;14.20;99.90
44763;DHT22;30483;49.576;6.036;2023-12-14T17:48:09;14.30;99.90
44763;DHT22;30483;49.576;6.036;2023-12-14T17:50:35;14.40;99.90
44763;DHT22;30483;49.576;6.036;2023-12-14T17:53:01;14.50;99.90
44763;DHT22;30483;49.576;6.036;2023-12-14T17:55:26;14.60;99.90
44763;DHT22;30483;49.576;6.036;2023-12-14T17:57:52;14.60;99.90
44763;DHT22;30483;49.576;6.036;2023-12-14T18:00:18;14.70;99.90
44763;DHT22;30483;49.576;6.036;2023-12-14T18:02:43;14.70;99.90
44763;DHT22;30483;49.576;6.036;2023-12-14T18:05:11;14.70;99.90
44763;DHT22;30483;49.576;6.036;2023-12-14T18:07:37;14.80;99.90
44763;DHT22;30483;49.576;6.036;2023-12-14T18:10:02;14.80;99.90
44763;DHT22;30483;49.576;6.036;2023-12-14T18:12:28;14.90;99.90
44763;DHT22;30483;49.576;6.036;2023-12-14T18:14:53;14.90;99.90
44763;DHT22;30483;49.576;6.036;2023-12-14T18:17:19;14.90;99.90
44763;DHT22;30483;49.576;6.036;2023-12-14T18:19:45;15.00;99.90
44763;DHT22;30483;49.576;6.036;2023-12-14T18:22:10;15.00;99.90
44763;DHT22;30483;49.576;6.036;2023-12-14T18:24:36;15.00;99.90
44763;DHT22;30483;49.576;6.036;2023-12-14T18:27:02;15.00;99.90
44763;DHT22;30483;49.576;6.036;2023-12-14T18:29:27;15.00;99.90
44763;DHT22;30483;49.576;6.036;2023-12-14T18:31:53;15.00;99.90
44763;DHT22;30483;49.576;6.036;2023-12-14T18:34:19;15.10;99.90
44763;DHT22;30483;49.576;6.036;2023-12-14T18:36:45;15.10;99.90
44763;DHT22;30483;49.576;6.036;2023-12-14T18:39:10;15.00;99.90
44763;DHT22;30483;49.576;6.036;2023-12-14T18:41:36;15.10;99.90
44763;DHT22;30483;49.576;6.036;2023-12-14T18:44:01;15.10;99.90
44763;DHT22;30483;49.576;6.036;2023-12-14T18:46:27;15.10;99.90
44763;DHT22;30483;49.576;6.036;2023-12-14T18:48:53;15.10;99.90
44763;DHT22;30483;49.576;6.036;2023-12-14T18:51:19;15.10;99.90
44763;DHT22;30483;49.576;6.036;2023-12-14T18:53:44;15.10;99.90
44763;DHT22;30483;49.576;6.036;2023-12-14T18:56:10;15.10;99.90
44763;DHT22;30483;49.576;6.036;2023-12-14T18:58:35;15.10;99.90
44763;DHT22;30483;49.576;6.036;2023-12-14T19:01:01;15.00;99.90
44763;DHT22;30483;49.576;6.036;2023-12-14T19:03:28;15.00;99.90
44763;DHT22;30483;49.576;6.036;2023-12-14T19:05:53;15.10;99.90
44763;DHT22;30483;49.576;6.036;2023-12-14T19:08:19;15.10;99.90
44763;DHT22;30483;49.576;6.036;2023-12-14T19:10:45;15.10;99.90
44763;DHT22;30483;49.576;6.036;2023-12-14T19:13:10;15.00;99.90
44763;DHT22;30483;49.576;6.036;2023-12-14T19:15:36;15.00;99.90
44763;DHT22;30483;49.576;6.036;2023-12-14T19:18:01;15.00;99.90
44763;DHT22;30483;49.576;6.036;2023-12-14T19:20:27;15.00;99.90
44763;DHT22;30483;49.576;6.036;2023-12-14T19:22:53;15.00;99.90
44763;DHT22;30483;49.576;6.036;2023-12-14T19:25:18;14.90;99.90
44763;DHT22;30483;49.576;6.036;2023-12-14T19:27:44;14.90;99.90
44763;DHT22;30483;49.576;6.036;2023-12-14T19:30:17;15.00;99.90
44763;DHT22;30483;49.576;6.036;2023-12-14T19:32:43;14.90;99.90
44763;DHT22;30483;49.576;6.036;2023-12-14T19:35:11;14.90;99.90